sensor_id;sensor_type;location;lat;lon;timestamp;P1;durP1;ratioP1;P2;durP2;ratioP2
61397;SDS011;47267;48.130;-2.040;2022-11-12T00:00:45;14.43;;;9.50;;
61397;SDS011;47267;48.130;-2.040;2022-11-12T00:03:13;13.05;;;8.85;;
61397;SDS011;47267;48.130;-2.040;2022-11-12T00:05:38;13.07;;;9.35;;
61397;SDS011;47267;48.130;-2.040;2022-11-12T00:08:04;14.25;;;9.30;;
61397;SDS011;47267;48.130;-2.040;2022-11-12T00:10:30;12.82;;;9.13;;
61397;SDS011;47267;48.130;-2.040;2022-11-12T00:12:56;12.90;;;9.10;;
61397;SDS011;47267;48.130;-2.040;2022-11-12T00:15:22;15.25;;;9.07;;
61397;SDS011;47267;48.130;-2.040;2022-11-12T00:17:48;14.13;;;8.90;;
61397;SDS011;47267;48.130;-2.040;2022-11-12T00:20:14;13.63;;;9.00;;
61397;SDS011;47267;48.130;-2.040;2022-11-12T00:22:39;13.82;;;9.48;;
61397;SDS011;47267;48.130;-2.040;2022-11-12T00:25:05;14.30;;;8.82;;
61397;SDS011;47267;48.130;-2.040;2022-11-12T00:27:32;13.82;;;9.40;;
61397;SDS011;47267;48.130;-2.040;2022-11-12T00:29:57;13.90;;;8.63;;
61397;SDS011;47267;48.130;-2.040;2022-11-12T00:32:23;12.57;;;9.20;;
61397;SDS011;47267;48.130;-2.040;2022-11-12T00:34:49;12.40;;;8.88;;
61397;SDS011;47267;48.130;-2.040;2022-11-12T00:37:15;12.55;;;8.50;;
61397;SDS011;47267;48.130;-2.040;2022-11-12T00:39:41;11.00;;;8.15;;
61397;SDS011;47267;48.130;-2.040;2022-11-12T00:42:07;13.55;;;9.30;;
61397;SDS011;47267;48.130;-2.040;2022-11-12T00:44:32;11.05;;;7.93;;
61397;SDS011;47267;48.130;-2.040;2022-11-12T00:46:58;13.25;;;8.85;;
61397;SDS011;47267;48.130;-2.040;2022-11-12T00:49:24;13.75;;;8.48;;
61397;SDS011;47267;48.130;-2.040;2022-11-12T00:51:50;12.60;;;8.63;;
61397;SDS011;47267;48.130;-2.040;2022-11-12T00:54:16;12.82;;;8.60;;
61397;SDS011;47267;48.130;-2.040;2022-11-12T00:56:41;12.50;;;8.10;;
61397;SDS011;47267;48.130;-2.040;2022-11-12T00:59:09;12.07;;;8.05;;
61397;SDS011;47267;48.130;-2.040;2022-11-12T01:01:35;12.70;;;8.40;;
61397;SDS011;47267;48.130;-2.040;2022-11-12T01:04:01;12.50;;;8.40;;
61397;SDS011;47267;48.130;-2.040;2022-11-12T01:06:28;13.63;;;9.07;;
61397;SDS011;47267;48.130;-2.040;2022-11-12T01:08:54;12.65;;;8.93;;
61397;SDS011;47267;48.130;-2.040;2022-11-12T01:11:21;12.00;;;8.57;;
61397;SDS011;47267;48.130;-2.040;2022-11-12T01:13:53;11.23;;;8.15;;
61397;SDS011;47267;48.130;-2.040;2022-11-12T01:16:20;11.95;;;8.05;;
61397;SDS011;47267;48.130;-2.040;2022-11-12T01:18:50;13.07;;;8.65;;
61397;SDS011;47267;48.130;-2.040;2022-11-12T01:21:19;13.48;;;8.25;;
61397;SDS011;47267;48.130;-2.040;2022-11-12T01:23:45;12.05;;;8.35;;
61397;SDS011;47267;48.130;-2.040;2022-11-12T01:26:15;11.13;;;7.90;;
61397;SDS011;47267;48.130;-2.040;2022-11-12T01:28:44;11.35;;;8.27;;
61397;SDS011;47267;48.130;-2.040;2022-11-12T01:31:17;11.52;;;8.32;;
61397;SDS011;47267;48.130;-2.040;2022-11-12T01:33:48;12.45;;;7.82;;
61397;SDS011;47267;48.130;-2.040;2022-11-12T01:36:17;11.73;;;7.80;;
61397;SDS011;47267;48.130;-2.040;2022-11-12T01:38:43;12.98;;;8.23;;
61397;SDS011;47267;48.130;-2.040;2022-11-12T01:41:14;12.70;;;8.48;;
61397;SDS011;47267;48.130;-2.040;2022-11-12T01:43:41;13.98;;;8.02;;
61397;SDS011;47267;48.130;-2.040;2022-11-12T01:46:12;11.23;;;8.38;;
61397;SDS011;47267;48.130;-2.040;2022-11-12T01:48:46;11.68;;;8.05;;
61397;SDS011;47267;48.130;-2.040;2022-11-12T01:51:35;12.13;;;8.30;;
61397;SDS011;47267;48.130;-2.040;2022-11-12T01:54:05;11.68;;;8.20;;
61397;SDS011;47267;48.130;-2.040;2022-11-12T01:56:33;11.73;;;7.80;;
61397;SDS011;47267;48.130;-2.040;2022-11-12T01:59:02;11.68;;;7.80;;
61397;SDS011;47267;48.130;-2.040;2022-11-12T02:01:32;11.65;;;8.02;;
61397;SDS011;47267;48.130;-2.040;2022-11-12T02:03:59;11.05;;;8.02;;
61397;SDS011;47267;48.130;-2.040;2022-11-12T02:06:26;12.15;;;8.18;;
61397;SDS011;47267;48.130;-2.040;2022-11-12T02:08:51;12.68;;;8.13;;
61397;SDS011;47267;48.130;-2.040;2022-11-12T02:11:19;11.57;;;8.00;;
61397;SDS011;47267;48.130;-2.040;2022-11-12T02:13:46;12.25;;;8.05;;
61397;SDS011;47267;48.130;-2.040;2022-11-12T02:19:08;14.07;;;8.73;;
61397;SDS011;47267;48.130;-2.040;2022-11-12T02:21:35;11.82;;;7.95;;
61397;SDS011;47267;48.130;-2.040;2022-11-12T02:24:03;10.73;;;7.47;;
61397;SDS011;47267;48.130;-2.040;2022-11-12T02:26:30;10.30;;;7.18;;
61397;SDS011;47267;48.130;-2.040;2022-11-12T02:28:59;11.00;;;7.63;;
61397;SDS011;47267;48.130;-2.040;2022-11-12T02:31:26;12.23;;;8.00;;
61397;SDS011;47267;48.130;-2.040;2022-11-12T02:33:51;11.55;;;6.95;;
61397;SDS011;47267;48.130;-2.040;2022-11-12T02:36:17;11.70;;;7.53;;
61397;SDS011;47267;48.130;-2.040;2022-11-12T02:38:43;11.70;;;7.28;;
61397;SDS011;47267;48.130;-2.040;2022-11-12T02:41:09;10.68;;;7.20;;
61397;SDS011;47267;48.130;-2.040;2022-11-12T02:43:34;10.65;;;7.07;;
61397;SDS011;47267;48.130;-2.040;2022-11-12T02:46:00;10.75;;;7.28;;
61397;SDS011;47267;48.130;-2.040;2022-11-12T02:48:26;11.88;;;7.50;;
61397;SDS011;47267;48.130;-2.040;2022-11-12T02:50:51;10.07;;;7.07;;
61397;SDS011;47267;48.130;-2.040;2022-11-12T02:53:17;12.13;;;7.78;;
61397;SDS011;47267;48.130;-2.040;2022-11-12T02:55:43;11.00;;;7.70;;
61397;SDS011;47267;48.130;-2.040;2022-11-12T02:58:08;11.60;;;7.10;;
61397;SDS011;47267;48.130;-2.040;2022-11-12T03:00:34;8.75;;;6.60;;
61397;SDS011;47267;48.130;-2.040;2022-11-12T03:03:00;10.13;;;7.15;;
61397;SDS011;47267;48.130;-2.040;2022-11-12T03:05:30;11.07;;;7.03;;
61397;SDS011;47267;48.130;-2.040;2022-11-12T03:10:24;9.88;;;6.53;;
61397;SDS011;47267;48.130;-2.040;2022-11-12T03:12:51;10.05;;;6.78;;
61397;SDS011;47267;48.130;-2.040;2022-11-12T03:15:18;10.25;;;6.65;;
61397;SDS011;47267;48.130;-2.040;2022-11-12T03:17:44;9.73;;;6.30;;
61397;SDS011;47267;48.130;-2.040;2022-11-12T03:20:10;9.65;;;6.30;;
61397;SDS011;47267;48.130;-2.040;2022-11-12T03:22:36;9.93;;;6.47;;
61397;SDS011;47267;48.130;-2.040;2022-11-12T03:25:03;10.93;;;6.65;;
61397;SDS011;47267;48.130;-2.040;2022-11-12T03:27:30;9.43;;;6.85;;
61397;SDS011;47267;48.130;-2.040;2022-11-12T03:29:56;8.45;;;6.25;;
61397;SDS011;47267;48.130;-2.040;2022-11-12T03:32:21;10.10;;;6.68;;
61397;SDS011;47267;48.130;-2.040;2022-11-12T03:34:47;12.13;;;6.85;;
61397;SDS011;47267;48.130;-2.040;2022-11-12T03:37:13;9.25;;;6.63;;
61397;SDS011;47267;48.130;-2.040;2022-11-12T03:39:39;9.18;;;5.95;;
61397;SDS011;47267;48.130;-2.040;2022-11-12T03:42:05;7.88;;;5.35;;
61397;SDS011;47267;48.130;-2.040;2022-11-12T03:44:30;9.25;;;5.82;;
61397;SDS011;47267;48.130;-2.040;2022-11-12T03:46:56;8.98;;;5.90;;
61397;SDS011;47267;48.130;-2.040;2022-11-12T03:49:22;8.70;;;5.78;;
61397;SDS011;47267;48.130;-2.040;2022-11-12T03:51:48;8.75;;;6.18;;
61397;SDS011;47267;48.130;-2.040;2022-11-12T03:54:13;8.75;;;6.05;;
61397;SDS011;47267;48.130;-2.040;2022-11-12T03:56:39;8.13;;;6.15;;
61397;SDS011;47267;48.130;-2.040;2022-11-12T03:59:05;8.90;;;5.88;;
61397;SDS011;47267;48.130;-2.040;2022-11-12T04:01:31;8.90;;;6.13;;
61397;SDS011;47267;48.130;-2.040;2022-11-12T04:03:56;7.63;;;5.40;;
61397;SDS011;47267;48.130;-2.040;2022-11-12T04:06:22;8.13;;;5.53;;
61397;SDS011;47267;48.130;-2.040;2022-11-12T04:09:06;8.35;;;5.60;;
61397;SDS011;47267;48.130;-2.040;2022-11-12T04:11:32;7.20;;;5.28;;
61397;SDS011;47267;48.130;-2.040;2022-11-12T04:13:57;7.30;;;5.32;;
61397;SDS011;47267;48.130;-2.040;2022-11-12T04:16:24;8.55;;;5.60;;
61397;SDS011;47267;48.130;-2.040;2022-11-12T04:19:09;7.20;;;5.05;;
61397;SDS011;47267;48.130;-2.040;2022-11-12T04:21:58;7.35;;;5.47;;
61397;SDS011;47267;48.130;-2.040;2022-11-12T04:24:38;6.93;;;5.05;;
61397;SDS011;47267;48.130;-2.040;2022-11-12T04:27:28;8.30;;;5.32;;
61397;SDS011;47267;48.130;-2.040;2022-11-12T04:29:55;6.78;;;4.72;;
61397;SDS011;47267;48.130;-2.040;2022-11-12T04:32:45;6.25;;;4.95;;
61397;SDS011;47267;48.130;-2.040;2022-11-12T04:35:13;7.82;;;4.72;;
61397;SDS011;47267;48.130;-2.040;2022-11-12T04:37:39;7.70;;;5.10;;
61397;SDS011;47267;48.130;-2.040;2022-11-12T04:40:12;7.65;;;5.28;;
61397;SDS011;47267;48.130;-2.040;2022-11-12T04:42:58;8.05;;;5.30;;
61397;SDS011;47267;48.130;-2.040;2022-11-12T04:45:44;7.93;;;5.10;;
61397;SDS011;47267;48.130;-2.040;2022-11-12T04:48:12;7.60;;;5.10;;
61397;SDS011;47267;48.130;-2.040;2022-11-12T04:50:37;6.93;;;4.40;;
61397;SDS011;47267;48.130;-2.040;2022-11-12T04:53:03;6.18;;;4.65;;
61397;SDS011;47267;48.130;-2.040;2022-11-12T04:55:29;6.78;;;4.60;;
61397;SDS011;47267;48.130;-2.040;2022-11-12T04:57:56;7.40;;;4.90;;
61397;SDS011;47267;48.130;-2.040;2022-11-12T05:00:21;5.72;;;4.70;;
61397;SDS011;47267;48.130;-2.040;2022-11-12T05:02:50;7.03;;;4.45;;
61397;SDS011;47267;48.130;-2.040;2022-11-12T05:05:16;7.88;;;4.95;;
61397;SDS011;47267;48.130;-2.040;2022-11-12T05:07:42;8.30;;;5.07;;
61397;SDS011;47267;48.130;-2.040;2022-11-12T05:10:07;6.10;;;4.47;;
61397;SDS011;47267;48.130;-2.040;2022-11-12T05:12:33;5.72;;;4.55;;
61397;SDS011;47267;48.130;-2.040;2022-11-12T05:14:59;6.22;;;4.18;;
61397;SDS011;47267;48.130;-2.040;2022-11-12T05:17:25;6.65;;;4.68;;
61397;SDS011;47267;48.130;-2.040;2022-11-12T05:19:51;7.60;;;4.68;;
61397;SDS011;47267;48.130;-2.040;2022-11-12T05:22:16;5.90;;;4.70;;
61397;SDS011;47267;48.130;-2.040;2022-11-12T05:24:42;6.18;;;4.40;;
61397;SDS011;47267;48.130;-2.040;2022-11-12T05:27:10;6.10;;;4.43;;
61397;SDS011;47267;48.130;-2.040;2022-11-12T05:29:37;6.43;;;4.28;;
61397;SDS011;47267;48.130;-2.040;2022-11-12T05:32:04;5.85;;;4.00;;
61397;SDS011;47267;48.130;-2.040;2022-11-12T05:34:30;4.97;;;3.92;;
61397;SDS011;47267;48.130;-2.040;2022-11-12T05:36:56;5.72;;;4.15;;
61397;SDS011;47267;48.130;-2.040;2022-11-12T05:39:22;6.60;;;4.53;;
61397;SDS011;47267;48.130;-2.040;2022-11-12T05:41:48;6.20;;;4.63;;
61397;SDS011;47267;48.130;-2.040;2022-11-12T05:44:14;5.70;;;4.05;;
61397;SDS011;47267;48.130;-2.040;2022-11-12T05:46:40;5.78;;;3.75;;
61397;SDS011;47267;48.130;-2.040;2022-11-12T05:49:05;6.00;;;4.07;;
61397;SDS011;47267;48.130;-2.040;2022-11-12T05:51:31;5.18;;;4.15;;
61397;SDS011;47267;48.130;-2.040;2022-11-12T05:53:57;5.65;;;4.28;;
61397;SDS011;47267;48.130;-2.040;2022-11-12T05:56:23;5.20;;;3.95;;
61397;SDS011;47267;48.130;-2.040;2022-11-12T05:58:48;4.53;;;3.42;;
61397;SDS011;47267;48.130;-2.040;2022-11-12T06:01:14;5.15;;;3.80;;
61397;SDS011;47267;48.130;-2.040;2022-11-12T06:03:40;5.28;;;4.18;;
61397;SDS011;47267;48.130;-2.040;2022-11-12T06:06:06;6.25;;;3.90;;
61397;SDS011;47267;48.130;-2.040;2022-11-12T06:08:32;4.38;;;3.83;;
61397;SDS011;47267;48.130;-2.040;2022-11-12T06:10:57;4.95;;;3.50;;
61397;SDS011;47267;48.130;-2.040;2022-11-12T06:13:23;4.95;;;3.80;;
61397;SDS011;47267;48.130;-2.040;2022-11-12T06:15:50;4.82;;;3.80;;
61397;SDS011;47267;48.130;-2.040;2022-11-12T06:18:17;5.57;;;3.55;;
61397;SDS011;47267;48.130;-2.040;2022-11-12T06:20:42;4.60;;;3.70;;
61397;SDS011;47267;48.130;-2.040;2022-11-12T06:23:08;4.20;;;3.58;;
61397;SDS011;47267;48.130;-2.040;2022-11-12T06:25:34;4.63;;;3.72;;
61397;SDS011;47267;48.130;-2.040;2022-11-12T06:27:59;5.55;;;3.88;;
61397;SDS011;47267;48.130;-2.040;2022-11-12T06:30:25;4.70;;;3.60;;
61397;SDS011;47267;48.130;-2.040;2022-11-12T06:32:51;4.50;;;3.75;;
61397;SDS011;47267;48.130;-2.040;2022-11-12T06:35:17;4.80;;;3.45;;
61397;SDS011;47267;48.130;-2.040;2022-11-12T06:37:44;4.38;;;3.47;;
61397;SDS011;47267;48.130;-2.040;2022-11-12T06:40:12;4.15;;;3.35;;
61397;SDS011;47267;48.130;-2.040;2022-11-12T06:42:38;4.03;;;3.38;;
61397;SDS011;47267;48.130;-2.040;2022-11-12T06:45:04;4.22;;;3.22;;
61397;SDS011;47267;48.130;-2.040;2022-11-12T06:47:30;4.50;;;3.33;;
61397;SDS011;47267;48.130;-2.040;2022-11-12T06:49:56;4.20;;;3.15;;
61397;SDS011;47267;48.130;-2.040;2022-11-12T06:52:22;3.83;;;3.30;;
61397;SDS011;47267;48.130;-2.040;2022-11-12T06:54:47;4.47;;;3.60;;
61397;SDS011;47267;48.130;-2.040;2022-11-12T06:57:13;4.55;;;3.63;;
61397;SDS011;47267;48.130;-2.040;2022-11-12T06:59:39;5.03;;;3.38;;
61397;SDS011;47267;48.130;-2.040;2022-11-12T07:02:05;4.30;;;3.42;;
61397;SDS011;47267;48.130;-2.040;2022-11-12T07:04:31;4.55;;;3.15;;
61397;SDS011;47267;48.130;-2.040;2022-11-12T07:06:56;3.65;;;3.13;;
61397;SDS011;47267;48.130;-2.040;2022-11-12T07:09:22;3.60;;;3.15;;
61397;SDS011;47267;48.130;-2.040;2022-11-12T07:11:48;4.90;;;3.10;;
61397;SDS011;47267;48.130;-2.040;2022-11-12T07:14:13;3.95;;;3.28;;
61397;SDS011;47267;48.130;-2.040;2022-11-12T07:16:39;4.18;;;2.97;;
61397;SDS011;47267;48.130;-2.040;2022-11-12T07:19:05;5.28;;;3.55;;
61397;SDS011;47267;48.130;-2.040;2022-11-12T07:21:30;4.53;;;3.40;;
61397;SDS011;47267;48.130;-2.040;2022-11-12T07:23:57;4.18;;;3.17;;
61397;SDS011;47267;48.130;-2.040;2022-11-12T07:26:24;4.03;;;3.20;;
61397;SDS011;47267;48.130;-2.040;2022-11-12T07:28:52;4.80;;;3.10;;
61397;SDS011;47267;48.130;-2.040;2022-11-12T07:31:20;4.50;;;3.20;;
61397;SDS011;47267;48.130;-2.040;2022-11-12T07:33:46;3.83;;;2.90;;
61397;SDS011;47267;48.130;-2.040;2022-11-12T07:36:16;4.13;;;3.20;;
61397;SDS011;47267;48.130;-2.040;2022-11-12T07:38:43;4.15;;;2.95;;
61397;SDS011;47267;48.130;-2.040;2022-11-12T07:43:40;3.47;;;3.08;;
61397;SDS011;47267;48.130;-2.040;2022-11-12T07:46:10;3.28;;;2.83;;
61397;SDS011;47267;48.130;-2.040;2022-11-12T07:48:37;3.78;;;3.05;;
61397;SDS011;47267;48.130;-2.040;2022-11-12T07:51:05;3.75;;;3.03;;
61397;SDS011;47267;48.130;-2.040;2022-11-12T07:53:32;3.88;;;2.78;;
61397;SDS011;47267;48.130;-2.040;2022-11-12T07:55:59;4.80;;;2.92;;
61397;SDS011;47267;48.130;-2.040;2022-11-12T07:58:26;3.10;;;2.70;;
61397;SDS011;47267;48.130;-2.040;2022-11-12T08:00:54;4.05;;;2.88;;
61397;SDS011;47267;48.130;-2.040;2022-11-12T08:03:20;4.45;;;3.03;;
61397;SDS011;47267;48.130;-2.040;2022-11-12T08:05:45;4.57;;;3.22;;
61397;SDS011;47267;48.130;-2.040;2022-11-12T08:08:12;3.42;;;2.80;;
61397;SDS011;47267;48.130;-2.040;2022-11-12T08:10:37;4.90;;;2.97;;
61397;SDS011;47267;48.130;-2.040;2022-11-12T08:13:03;3.47;;;2.83;;
61397;SDS011;47267;48.130;-2.040;2022-11-12T08:15:29;3.25;;;2.65;;
61397;SDS011;47267;48.130;-2.040;2022-11-12T08:17:55;3.42;;;2.78;;
61397;SDS011;47267;48.130;-2.040;2022-11-12T08:20:21;2.92;;;2.63;;
61397;SDS011;47267;48.130;-2.040;2022-11-12T08:22:47;3.80;;;2.80;;
61397;SDS011;47267;48.130;-2.040;2022-11-12T08:25:13;3.25;;;2.45;;
61397;SDS011;47267;48.130;-2.040;2022-11-12T08:27:39;4.38;;;2.83;;
61397;SDS011;47267;48.130;-2.040;2022-11-12T08:30:05;3.55;;;2.42;;
61397;SDS011;47267;48.130;-2.040;2022-11-12T08:32:31;3.17;;;2.53;;
61397;SDS011;47267;48.130;-2.040;2022-11-12T08:34:57;3.55;;;2.90;;
61397;SDS011;47267;48.130;-2.040;2022-11-12T08:37:23;4.15;;;2.80;;
61397;SDS011;47267;48.130;-2.040;2022-11-12T08:39:49;3.92;;;2.72;;
61397;SDS011;47267;48.130;-2.040;2022-11-12T08:42:14;3.70;;;2.90;;
61397;SDS011;47267;48.130;-2.040;2022-11-12T08:44:40;6.47;;;3.03;;
61397;SDS011;47267;48.130;-2.040;2022-11-12T08:47:12;3.58;;;2.63;;
61397;SDS011;47267;48.130;-2.040;2022-11-12T08:49:38;3.88;;;2.67;;
61397;SDS011;47267;48.130;-2.040;2022-11-12T08:52:04;4.60;;;2.95;;
61397;SDS011;47267;48.130;-2.040;2022-11-12T08:54:29;3.75;;;2.80;;
61397;SDS011;47267;48.130;-2.040;2022-11-12T08:56:55;3.97;;;2.67;;
61397;SDS011;47267;48.130;-2.040;2022-11-12T08:59:20;5.75;;;2.95;;
61397;SDS011;47267;48.130;-2.040;2022-11-12T09:01:46;4.72;;;2.78;;
61397;SDS011;47267;48.130;-2.040;2022-11-12T09:04:12;3.85;;;2.95;;
61397;SDS011;47267;48.130;-2.040;2022-11-12T09:06:37;5.07;;;2.97;;
61397;SDS011;47267;48.130;-2.040;2022-11-12T09:09:03;5.32;;;3.03;;
61397;SDS011;47267;48.130;-2.040;2022-11-12T09:11:29;4.97;;;2.92;;
61397;SDS011;47267;48.130;-2.040;2022-11-12T09:13:54;4.88;;;2.90;;
61397;SDS011;47267;48.130;-2.040;2022-11-12T09:16:20;3.53;;;2.83;;
61397;SDS011;47267;48.130;-2.040;2022-11-12T09:18:48;4.45;;;3.05;;
61397;SDS011;47267;48.130;-2.040;2022-11-12T09:21:14;5.32;;;3.13;;
61397;SDS011;47267;48.130;-2.040;2022-11-12T09:23:39;4.20;;;3.28;;
61397;SDS011;47267;48.130;-2.040;2022-11-12T09:26:05;5.43;;;3.40;;
61397;SDS011;47267;48.130;-2.040;2022-11-12T09:28:31;5.80;;;3.55;;
61397;SDS011;47267;48.130;-2.040;2022-11-12T09:30:57;4.28;;;2.97;;
61397;SDS011;47267;48.130;-2.040;2022-11-12T09:33:24;5.45;;;3.45;;
61397;SDS011;47267;48.130;-2.040;2022-11-12T09:35:52;5.40;;;3.28;;
61397;SDS011;47267;48.130;-2.040;2022-11-12T09:38:18;5.03;;;3.17;;
61397;SDS011;47267;48.130;-2.040;2022-11-12T09:40:47;6.95;;;3.05;;
61397;SDS011;47267;48.130;-2.040;2022-11-12T09:43:39;4.68;;;2.80;;
61397;SDS011;47267;48.130;-2.040;2022-11-12T09:48:50;4.00;;;3.00;;
61397;SDS011;47267;48.130;-2.040;2022-11-12T09:51:25;4.63;;;3.47;;
61397;SDS011;47267;48.130;-2.040;2022-11-12T09:53:58;8.25;;;2.85;;
61397;SDS011;47267;48.130;-2.040;2022-11-12T09:56:46;7.43;;;3.10;;
61397;SDS011;47267;48.130;-2.040;2022-11-12T09:59:13;4.20;;;2.95;;
61397;SDS011;47267;48.130;-2.040;2022-11-12T10:04:19;6.13;;;3.00;;
61397;SDS011;47267;48.130;-2.040;2022-11-12T10:09:58;3.33;;;2.88;;
61397;SDS011;47267;48.130;-2.040;2022-11-12T10:12:59;4.50;;;2.70;;
61397;SDS011;47267;48.130;-2.040;2022-11-12T10:24:32;4.78;;;2.85;;
61397;SDS011;47267;48.130;-2.040;2022-11-12T10:29:31;4.55;;;2.60;;
61397;SDS011;47267;48.130;-2.040;2022-11-12T10:32:03;3.72;;;2.63;;
61397;SDS011;47267;48.130;-2.040;2022-11-12T10:34:29;4.03;;;2.47;;
61397;SDS011;47267;48.130;-2.040;2022-11-12T10:36:58;3.60;;;2.90;;
61397;SDS011;47267;48.130;-2.040;2022-11-12T10:42:13;5.70;;;2.45;;
61397;SDS011;47267;48.130;-2.040;2022-11-12T10:44:40;4.72;;;2.60;;
61397;SDS011;47267;48.130;-2.040;2022-11-12T10:50:47;4.50;;;2.97;;
61397;SDS011;47267;48.130;-2.040;2022-11-12T10:53:03;4.65;;;2.58;;
61397;SDS011;47267;48.130;-2.040;2022-11-12T10:55:34;2.95;;;2.50;;
61397;SDS011;47267;48.130;-2.040;2022-11-12T11:00:50;2.58;;;2.38;;
61397;SDS011;47267;48.130;-2.040;2022-11-12T11:03:28;3.53;;;2.42;;
61397;SDS011;47267;48.130;-2.040;2022-11-12T11:08:33;2.92;;;2.45;;
61397;SDS011;47267;48.130;-2.040;2022-11-12T11:13:50;3.60;;;2.67;;
61397;SDS011;47267;48.130;-2.040;2022-11-12T11:16:18;4.22;;;2.67;;
61397;SDS011;47267;48.130;-2.040;2022-11-12T11:18:56;5.05;;;2.92;;
61397;SDS011;47267;48.130;-2.040;2022-11-12T11:36:29;3.67;;;2.93;;
61397;SDS011;47267;48.130;-2.040;2022-11-12T11:44:06;4.30;;;3.10;;
61397;SDS011;47267;48.130;-2.040;2022-11-12T11:46:40;3.53;;;2.80;;
61397;SDS011;47267;48.130;-2.040;2022-11-12T11:49:19;3.72;;;2.65;;
61397;SDS011;47267;48.130;-2.040;2022-11-12T11:55:01;5.07;;;3.08;;
61397;SDS011;47267;48.130;-2.040;2022-11-12T11:57:56;5.43;;;2.70;;
61397;SDS011;47267;48.130;-2.040;2022-11-12T12:00:24;3.65;;;2.83;;
61397;SDS011;47267;48.130;-2.040;2022-11-12T12:03:04;5.97;;;2.90;;
61397;SDS011;47267;48.130;-2.040;2022-11-12T12:14:05;4.35;;;2.97;;
61397;SDS011;47267;48.130;-2.040;2022-11-12T12:16:47;2.92;;;2.45;;
61397;SDS011;47267;48.130;-2.040;2022-11-12T12:25:16;3.75;;;2.67;;
61397;SDS011;47267;48.130;-2.040;2022-11-12T12:27:50;3.92;;;2.65;;
61397;SDS011;47267;48.130;-2.040;2022-11-12T12:30:24;3.55;;;2.30;;
61397;SDS011;47267;48.130;-2.040;2022-11-12T12:36:13;3.00;;;2.47;;
61397;SDS011;47267;48.130;-2.040;2022-11-12T12:44:16;4.05;;;2.60;;
61397;SDS011;47267;48.130;-2.040;2022-11-12T12:46:44;4.28;;;2.45;;
61397;SDS011;47267;48.130;-2.040;2022-11-12T12:51:43;5.47;;;2.90;;
61397;SDS011;47267;48.130;-2.040;2022-11-12T13:02:55;3.38;;;2.60;;
61397;SDS011;47267;48.130;-2.040;2022-11-12T13:05:22;3.58;;;2.60;;
61397;SDS011;47267;48.130;-2.040;2022-11-12T13:07:48;4.90;;;2.53;;
61397;SDS011;47267;48.130;-2.040;2022-11-12T13:15:50;3.05;;;2.25;;
61397;SDS011;47267;48.130;-2.040;2022-11-12T13:21:12;3.72;;;2.60;;
61397;SDS011;47267;48.130;-2.040;2022-11-12T13:23:49;3.83;;;2.75;;
61397;SDS011;47267;48.130;-2.040;2022-11-12T13:29:21;3.30;;;2.42;;
61397;SDS011;47267;48.130;-2.040;2022-11-12T13:31:46;4.68;;;2.80;;
61397;SDS011;47267;48.130;-2.040;2022-11-12T13:34:22;3.83;;;2.50;;
61397;SDS011;47267;48.130;-2.040;2022-11-12T13:36:58;3.63;;;2.40;;
61397;SDS011;47267;48.130;-2.040;2022-11-12T13:39:27;4.43;;;2.40;;
61397;SDS011;47267;48.130;-2.040;2022-11-12T13:41:57;3.70;;;2.60;;
61397;SDS011;47267;48.130;-2.040;2022-11-12T13:44:42;3.88;;;2.53;;
61397;SDS011;47267;48.130;-2.040;2022-11-12T13:47:19;4.57;;;2.72;;
61397;SDS011;47267;48.130;-2.040;2022-11-12T13:49:48;2.63;;;2.33;;
61397;SDS011;47267;48.130;-2.040;2022-11-12T13:52:15;4.20;;;2.80;;
61397;SDS011;47267;48.130;-2.040;2022-11-12T13:54:43;2.55;;;2.13;;
61397;SDS011;47267;48.130;-2.040;2022-11-12T13:59:45;3.35;;;2.33;;
61397;SDS011;47267;48.130;-2.040;2022-11-12T14:04:45;4.05;;;2.45;;
61397;SDS011;47267;48.130;-2.040;2022-11-12T14:10:03;4.43;;;2.60;;
61397;SDS011;47267;48.130;-2.040;2022-11-12T14:12:37;3.58;;;2.60;;
61397;SDS011;47267;48.130;-2.040;2022-11-12T14:18:27;3.50;;;2.40;;
61397;SDS011;47267;48.130;-2.040;2022-11-12T14:21:17;3.42;;;2.20;;
61397;SDS011;47267;48.130;-2.040;2022-11-12T14:23:44;3.00;;;2.10;;
61397;SDS011;47267;48.130;-2.040;2022-11-12T14:26:12;3.42;;;2.22;;
61397;SDS011;47267;48.130;-2.040;2022-11-12T14:28:57;3.58;;;2.30;;
61397;SDS011;47267;48.130;-2.040;2022-11-12T14:31:23;4.20;;;2.30;;
61397;SDS011;47267;48.130;-2.040;2022-11-12T14:33:50;3.13;;;2.40;;
61397;SDS011;47267;48.130;-2.040;2022-11-12T14:36:16;2.90;;;2.13;;
61397;SDS011;47267;48.130;-2.040;2022-11-12T14:38:47;3.80;;;2.28;;
61397;SDS011;47267;48.130;-2.040;2022-11-12T14:43:46;3.15;;;2.17;;
61397;SDS011;47267;48.130;-2.040;2022-11-12T14:46:57;3.10;;;2.20;;
61397;SDS011;47267;48.130;-2.040;2022-11-12T14:52:08;3.60;;;2.63;;
61397;SDS011;47267;48.130;-2.040;2022-11-12T14:54:57;3.20;;;2.03;;
61397;SDS011;47267;48.130;-2.040;2022-11-12T14:57:48;3.63;;;2.55;;
61397;SDS011;47267;48.130;-2.040;2022-11-12T15:00:24;4.15;;;2.50;;
61397;SDS011;47267;48.130;-2.040;2022-11-12T15:03:02;3.00;;;2.20;;
61397;SDS011;47267;48.130;-2.040;2022-11-12T15:05:29;4.35;;;2.40;;
61397;SDS011;47267;48.130;-2.040;2022-11-12T15:10:33;3.92;;;2.30;;
61397;SDS011;47267;48.130;-2.040;2022-11-12T15:13:15;2.80;;;2.13;;
61397;SDS011;47267;48.130;-2.040;2022-11-12T15:15:58;2.92;;;2.22;;
61397;SDS011;47267;48.130;-2.040;2022-11-12T15:18:29;4.32;;;2.92;;
61397;SDS011;47267;48.130;-2.040;2022-11-12T15:23:55;3.35;;;1.85;;
61397;SDS011;47267;48.130;-2.040;2022-11-12T15:26:35;3.90;;;2.40;;
61397;SDS011;47267;48.130;-2.040;2022-11-12T15:34:26;4.35;;;2.30;;
61397;SDS011;47267;48.130;-2.040;2022-11-12T15:36:57;3.33;;;2.20;;
61397;SDS011;47267;48.130;-2.040;2022-11-12T15:39:27;2.95;;;2.30;;
61397;SDS011;47267;48.130;-2.040;2022-11-12T15:41:55;3.97;;;2.53;;
61397;SDS011;47267;48.130;-2.040;2022-11-12T15:44:23;4.05;;;2.05;;
61397;SDS011;47267;48.130;-2.040;2022-11-12T15:46:49;4.28;;;2.30;;
61397;SDS011;47267;48.130;-2.040;2022-11-12T15:49:17;3.97;;;2.50;;
61397;SDS011;47267;48.130;-2.040;2022-11-12T15:51:42;2.95;;;2.33;;
61397;SDS011;47267;48.130;-2.040;2022-11-12T15:54:08;3.22;;;2.35;;
61397;SDS011;47267;48.130;-2.040;2022-11-12T15:56:34;3.72;;;2.13;;
61397;SDS011;47267;48.130;-2.040;2022-11-12T15:58:59;3.83;;;2.55;;
61397;SDS011;47267;48.130;-2.040;2022-11-12T16:01:26;4.15;;;2.30;;
61397;SDS011;47267;48.130;-2.040;2022-11-12T16:03:52;2.88;;;2.30;;
61397;SDS011;47267;48.130;-2.040;2022-11-12T16:06:18;3.03;;;2.20;;
61397;SDS011;47267;48.130;-2.040;2022-11-12T16:08:44;3.92;;;2.50;;
61397;SDS011;47267;48.130;-2.040;2022-11-12T16:11:10;2.92;;;2.25;;
61397;SDS011;47267;48.130;-2.040;2022-11-12T16:13:57;2.80;;;2.45;;
61397;SDS011;47267;48.130;-2.040;2022-11-12T16:16:22;3.00;;;2.58;;
61397;SDS011;47267;48.130;-2.040;2022-11-12T16:18:48;2.75;;;2.30;;
61397;SDS011;47267;48.130;-2.040;2022-11-12T16:21:14;3.20;;;2.50;;
61397;SDS011;47267;48.130;-2.040;2022-11-12T16:23:40;5.07;;;2.67;;
61397;SDS011;47267;48.130;-2.040;2022-11-12T16:26:06;3.58;;;2.35;;
61397;SDS011;47267;48.130;-2.040;2022-11-12T16:28:33;2.70;;;2.30;;
61397;SDS011;47267;48.130;-2.040;2022-11-12T16:30:59;2.88;;;2.22;;
61397;SDS011;47267;48.130;-2.040;2022-11-12T16:33:25;3.40;;;2.40;;
61397;SDS011;47267;48.130;-2.040;2022-11-12T16:35:51;2.50;;;1.83;;
61397;SDS011;47267;48.130;-2.040;2022-11-12T16:38:16;3.63;;;2.25;;
61397;SDS011;47267;48.130;-2.040;2022-11-12T16:40:43;3.63;;;2.65;;
61397;SDS011;47267;48.130;-2.040;2022-11-12T16:43:09;3.05;;;2.05;;
61397;SDS011;47267;48.130;-2.040;2022-11-12T16:45:39;2.33;;;2.13;;
61397;SDS011;47267;48.130;-2.040;2022-11-12T16:48:10;3.35;;;2.33;;
61397;SDS011;47267;48.130;-2.040;2022-11-12T16:50:41;2.67;;;2.10;;
61397;SDS011;47267;48.130;-2.040;2022-11-12T16:53:07;3.63;;;2.42;;
61397;SDS011;47267;48.130;-2.040;2022-11-12T16:55:33;2.95;;;2.50;;
61397;SDS011;47267;48.130;-2.040;2022-11-12T16:57:59;3.58;;;2.30;;